createdAt,value
2023-04-10T00:00:28.677Z,99.90
2023-04-10T00:09:23.138Z,99.90
2023-04-10T00:11:58.829Z,99.90
2023-04-10T00:14:48.414Z,99.90
2023-04-10T00:17:42.419Z,99.90
2023-04-10T00:20:27.401Z,99.90
2023-04-10T00:26:07.912Z,99.90
2023-04-10T00:29:32.552Z,99.90
2023-04-10T00:32:46.469Z,99.90
2023-04-10T00:35:27.145Z,99.90
2023-04-10T00:38:36.714Z,99.90
2023-04-10T00:41:17.911Z,99.90
2023-04-10T00:47:59.242Z,99.90
2023-04-10T00:53:58.303Z,99.90
2023-04-10T00:56:35.566Z,99.90
2023-04-10T00:59:21.358Z,99.90
2023-04-10T01:02:19.522Z,99.90
2023-04-10T01:05:41.226Z,99.90
2023-04-10T01:18:19.225Z,99.90
2023-04-10T01:24:53.942Z,99.90
2023-04-10T01:28:15.676Z,99.90
2023-04-10T01:34:23.240Z,99.90
2023-04-10T01:40:07.799Z,99.90
2023-04-10T01:42:57.382Z,99.90
2023-04-10T01:46:32.235Z,99.90
2023-04-10T01:56:45.774Z,99.90
2023-04-10T02:02:37.417Z,99.90
2023-04-10T02:08:42.186Z,99.90
2023-04-10T02:11:45.558Z,99.90
2023-04-10T02:15:07.901Z,99.90
2023-04-10T02:29:36.250Z,99.90
2023-04-10T02:40:01.319Z,99.90
2023-04-10T02:43:04.592Z,99.90
2023-04-10T02:45:47.421Z,99.90
2023-04-10T02:49:29.550Z,99.90
2023-04-10T02:56:50.365Z,99.90
2023-04-10T03:03:15.386Z,99.90
2023-04-10T03:09:52.277Z,99.90
2023-04-10T03:13:00.003Z,99.90
2023-04-10T03:34:34.545Z,99.90
2023-04-10T03:37:33.843Z,99.90
2023-04-10T03:43:56.796Z,99.90
2023-04-10T03:50:29.114Z,99.90
2023-04-10T03:57:18.121Z,99.90
2023-04-10T04:19:56.718Z,99.90
2023-04-10T04:30:05.804Z,99.90
2023-04-10T04:33:48.661Z,99.90
2023-04-10T04:37:48.808Z,99.90
2023-04-10T04:44:58.029Z,99.90
2023-04-10T04:48:19.504Z,99.90
2023-04-10T04:55:31.350Z,99.90
2023-04-10T05:02:43.900Z,99.90
2023-04-10T05:17:37.723Z,99.90
2023-04-10T05:21:13.824Z,99.90
2023-04-10T05:27:57.972Z,99.90
2023-04-10T05:50:40.220Z,99.90
2023-04-10T05:57:47.643Z,99.90
2023-04-10T06:01:18.256Z,99.90
2023-04-10T06:09:04.396Z,99.90
2023-04-10T06:19:20.030Z,99.90
2023-04-10T06:25:14.502Z,99.90
2023-04-10T06:28:18.237Z,99.90
2023-04-10T06:31:36.584Z,99.90
2023-04-10T06:34:41.384Z,99.90
2023-04-10T06:37:44.392Z,99.90
2023-04-10T06:48:16.131Z,99.90
2023-04-10T06:51:46.107Z,99.90
2023-04-10T06:59:16.178Z,99.90
2023-04-10T07:02:33.433Z,99.90
2023-04-10T07:05:57.435Z,99.90
2023-04-10T07:17:37.800Z,99.90
2023-04-10T07:20:29.740Z,99.90
2023-04-10T07:24:19.574Z,99.90
2023-04-10T07:27:04.978Z,99.90
2023-04-10T07:38:01.577Z,99.90
2023-04-10T08:21:05.386Z,99.90
2023-04-10T08:30:22.503Z,99.90
2023-04-10T08:44:20.888Z,99.90
2023-04-10T08:58:19.100Z,99.90
2023-04-10T09:01:03.090Z,99.90
2023-04-10T09:03:42.533Z,99.90
2023-04-10T09:06:14.011Z,99.90
2023-04-10T09:08:42.481Z,99.90
2023-04-10T09:16:21.812Z,99.90
2023-04-10T09:18:55.966Z,98.30
2023-04-10T09:21:24.704Z,91.90
2023-04-10T09:24:02.638Z,85.70
2023-04-10T09:26:32.490Z,79.40
2023-04-10T09:29:02.914Z,74.30
2023-04-10T09:31:33.545Z,68.30
2023-04-10T09:34:16.205Z,64.50
2023-04-10T09:36:45.915Z,62.30
2023-04-10T09:39:14.833Z,61.50
2023-04-10T09:41:51.473Z,63.90
2023-04-10T09:44:30.303Z,64.70
2023-04-10T09:47:01.997Z,68.30
2023-04-10T09:49:48.368Z,72.40
2023-04-10T09:52:21.825Z,74.20
2023-04-10T09:54:50.334Z,75.70
2023-04-10T09:57:20.780Z,77.30
2023-04-10T09:59:51.806Z,77.10
2023-04-10T10:02:21.849Z,80.70
2023-04-10T10:04:52.716Z,82.50
2023-04-10T10:07:22.604Z,83.30
2023-04-10T10:09:52.485Z,84.40
2023-04-10T10:12:25.710Z,87.00
2023-04-10T10:15:02.403Z,84.80
2023-04-10T10:17:34.425Z,84.90
2023-04-10T10:20:07.349Z,87.30
2023-04-10T10:22:37.565Z,86.90
2023-04-10T10:25:07.835Z,86.60
2023-04-10T10:27:39.381Z,87.90
2023-04-10T10:30:28.034Z,87.50
2023-04-10T10:32:59.491Z,88.70
2023-04-10T10:35:31.903Z,89.70
2023-04-10T10:38:01.335Z,90.10
2023-04-10T10:40:33.920Z,90.30
2023-04-10T10:43:13.708Z,89.80
2023-04-10T10:45:50.523Z,89.10
2023-04-10T10:48:18.784Z,86.20
2023-04-10T10:50:57.421Z,86.10
2023-04-10T10:53:40.587Z,85.10
2023-04-10T10:56:35.083Z,87.70
2023-04-10T10:59:03.443Z,87.90
2023-04-10T11:01:31.812Z,87.90
2023-04-10T11:04:01.457Z,87.80
2023-04-10T11:06:53.327Z,88.60
2023-04-10T11:09:48.378Z,87.00
2023-04-10T11:12:17.713Z,85.80
2023-04-10T11:14:57.242Z,84.40
2023-04-10T11:17:48.758Z,84.90
2023-04-10T11:20:17.575Z,86.70
2023-04-10T11:23:23.829Z,88.80
2023-04-10T11:25:53.316Z,90.80
2023-04-10T11:28:40.745Z,90.50
2023-04-10T11:31:18.616Z,88.50
2023-04-10T11:33:49.830Z,87.20
2023-04-10T11:36:18.980Z,87.40
2023-04-10T11:38:59.342Z,87.50
2023-04-10T11:41:32.744Z,87.70
2023-04-10T11:44:01.924Z,89.10
2023-04-10T11:46:31.005Z,89.30
2023-04-10T11:49:01.294Z,90.70
2023-04-10T11:51:31.105Z,90.80
2023-04-10T11:54:16.662Z,86.40
2023-04-10T11:57:06.179Z,88.90
2023-04-10T11:59:40.848Z,87.20
2023-04-10T12:02:11.865Z,89.10
2023-04-10T12:04:43.366Z,87.00
2023-04-10T12:07:13.894Z,87.30
2023-04-10T12:09:47.257Z,86.00
2023-04-10T12:12:15.844Z,88.50
2023-04-10T12:14:44.839Z,83.70
2023-04-10T12:17:14.474Z,86.60
2023-04-10T12:19:43.056Z,86.70
2023-04-10T12:22:13.998Z,85.00
2023-04-10T12:24:45.406Z,87.90
2023-04-10T12:27:29.401Z,85.50
2023-04-10T12:29:58.708Z,82.60
2023-04-10T12:32:32.603Z,80.70
2023-04-10T12:35:03.130Z,80.20
2023-04-10T12:37:49.958Z,81.50
2023-04-10T12:40:28.111Z,83.40
2023-04-10T12:43:00.194Z,81.00
2023-04-10T12:45:43.196Z,82.20
2023-04-10T12:48:11.669Z,81.60
2023-04-10T12:50:56.599Z,83.90
2023-04-10T12:53:28.383Z,83.00
2023-04-10T12:56:03.837Z,82.30
2023-04-10T12:58:32.551Z,84.50
2023-04-10T13:01:05.336Z,83.00
2023-04-10T13:03:38.658Z,79.80
2023-04-10T13:06:11.059Z,80.50
2023-04-10T13:08:39.691Z,81.00
2023-04-10T13:11:28.350Z,77.60
2023-04-10T13:13:56.993Z,79.70
2023-04-10T13:16:25.744Z,79.70
2023-04-10T13:18:57.221Z,79.00
2023-04-10T13:21:32.167Z,79.10
2023-04-10T13:24:00.670Z,78.30
2023-04-10T13:26:33.429Z,81.30
2023-04-10T13:29:01.777Z,79.40
2023-04-10T13:31:30.272Z,80.60
2023-04-10T13:33:58.671Z,81.20
2023-04-10T13:36:27.396Z,79.80
2023-04-10T13:38:59.018Z,79.90
2023-04-10T13:41:27.462Z,79.10
2023-04-10T13:43:57.223Z,80.90
2023-04-10T13:46:25.628Z,78.90
2023-04-10T13:48:54.019Z,80.40
2023-04-10T13:51:25.682Z,81.50
2023-04-10T13:53:53.947Z,79.90
2023-04-10T13:56:22.354Z,82.50
2023-04-10T13:58:51.147Z,83.30
2023-04-10T14:01:20.889Z,83.30
2023-04-10T14:03:49.594Z,84.30
2023-04-10T14:06:18.291Z,85.70
2023-04-10T14:08:46.681Z,85.50
2023-04-10T14:11:15.052Z,84.50
2023-04-10T14:13:43.292Z,86.40
2023-04-10T14:16:11.949Z,86.80
2023-04-10T14:18:51.822Z,86.30
2023-04-10T14:21:20.855Z,83.00
2023-04-10T14:23:49.206Z,80.80
2023-04-10T14:26:17.932Z,81.20
2023-04-10T14:28:48.158Z,80.80
2023-04-10T14:31:16.438Z,80.40
2023-04-10T14:33:46.272Z,80.10
2023-04-10T14:36:14.550Z,83.10
2023-04-10T14:38:42.868Z,84.40
2023-04-10T14:41:11.475Z,82.70
2023-04-10T14:43:39.901Z,84.80
2023-04-10T14:46:08.655Z,85.40
2023-04-10T14:48:37.025Z,84.40
2023-04-10T14:51:12.762Z,82.80
2023-04-10T14:53:41.024Z,83.50
2023-04-10T14:56:13.223Z,82.90
2023-04-10T14:58:41.576Z,83.20
2023-04-10T15:01:12.029Z,83.00
2023-04-10T15:03:40.713Z,83.10
2023-04-10T15:06:10.639Z,83.60
2023-04-10T15:08:38.985Z,81.60
2023-04-10T15:11:07.704Z,81.00
2023-04-10T15:13:36.032Z,82.60
2023-04-10T15:16:04.401Z,84.40
2023-04-10T15:18:33.664Z,85.30
2023-04-10T15:21:01.886Z,84.30
2023-04-10T15:23:31.809Z,85.60
2023-04-10T15:26:00.148Z,87.10
2023-04-10T15:28:29.240Z,88.70
2023-04-10T15:30:57.977Z,88.50
2023-04-10T15:33:26.350Z,89.70
2023-04-10T15:35:54.717Z,90.60
2023-04-10T15:38:23.121Z,90.30
2023-04-10T15:40:52.753Z,90.90
2023-04-10T15:43:20.967Z,91.00
2023-04-10T15:45:49.344Z,91.30
2023-04-10T15:48:17.898Z,91.20
2023-04-10T15:50:46.120Z,91.20
2023-04-10T15:53:14.615Z,91.40
2023-04-10T15:55:42.982Z,91.00
2023-04-10T15:58:12.865Z,91.10
2023-04-10T16:00:41.134Z,90.30
2023-04-10T16:03:09.569Z,90.30
2023-04-10T16:05:37.987Z,91.20
2023-04-10T16:08:06.364Z,91.50
2023-04-10T16:10:35.738Z,91.20
2023-04-10T16:13:06.771Z,90.60
2023-04-10T16:15:37.636Z,89.40
2023-04-10T16:18:07.754Z,88.40
2023-04-10T16:20:36.204Z,87.90
2023-04-10T16:23:04.982Z,87.30
2023-04-10T16:25:33.326Z,87.50
2023-04-10T16:28:15.874Z,88.10
2023-04-10T16:30:46.087Z,88.20
2023-04-10T16:33:14.574Z,89.30
2023-04-10T16:35:42.842Z,89.90
2023-04-10T16:38:11.451Z,87.60
2023-04-10T16:40:40.257Z,88.80
2023-04-10T16:43:08.721Z,88.90
2023-04-10T16:45:37.064Z,89.70
2023-04-10T16:48:06.814Z,89.40
2023-04-10T16:50:36.818Z,90.50
2023-04-10T16:53:05.173Z,91.10
2023-04-10T16:55:33.409Z,91.10
2023-04-10T16:58:01.688Z,91.10
2023-04-10T17:00:30.259Z,91.40
2023-04-10T17:03:00.219Z,92.20
2023-04-10T17:05:36.710Z,92.30
2023-04-10T17:08:05.319Z,92.70
2023-04-10T17:10:33.726Z,93.10
2023-04-10T17:13:02.039Z,93.20
2023-04-10T17:15:30.293Z,93.50
2023-04-10T17:17:58.559Z,93.90
2023-04-10T17:20:28.294Z,94.20
2023-04-10T17:22:58.400Z,94.30
2023-04-10T17:25:26.847Z,94.50
2023-04-10T17:27:55.172Z,94.70
2023-04-10T17:30:23.587Z,95.00
2023-04-10T17:32:51.974Z,95.20
2023-04-10T17:35:20.331Z,95.40
2023-04-10T17:37:48.541Z,95.50
2023-04-10T17:40:18.458Z,95.60
2023-04-10T17:42:47.118Z,95.70
2023-04-10T17:45:15.503Z,96.00
2023-04-10T17:47:43.819Z,96.20
2023-04-10T17:50:12.453Z,96.20
2023-04-10T17:52:41.341Z,96.30
2023-04-10T17:55:10.537Z,96.40
2023-04-10T17:57:40.267Z,96.90
2023-04-10T18:00:10.331Z,97.20
2023-04-10T18:02:38.690Z,97.20
2023-04-10T18:05:09.084Z,97.30
2023-04-10T18:07:37.349Z,97.30
2023-04-10T18:10:05.915Z,97.30
2023-04-10T18:12:34.452Z,97.50
2023-04-10T18:15:04.269Z,97.60
2023-04-10T18:17:32.593Z,97.80
2023-04-10T18:20:00.829Z,98.00
2023-04-10T18:22:29.769Z,98.20
2023-04-10T18:24:58.010Z,98.30
2023-04-10T18:27:30.389Z,98.50
2023-04-10T18:29:59.115Z,98.50
2023-04-10T18:32:28.820Z,98.70
2023-04-10T18:34:59.374Z,98.80
2023-04-10T18:37:27.633Z,99.20
2023-04-10T18:39:58.796Z,99.40
2023-04-10T18:42:29.392Z,99.60
2023-04-10T18:44:57.785Z,99.50
2023-04-10T18:47:26.113Z,99.90
2023-04-10T18:49:55.801Z,99.90
2023-04-10T18:52:24.090Z,99.90
2023-04-10T18:54:52.393Z,99.90
2023-04-10T18:57:20.666Z,99.90
2023-04-10T18:59:48.916Z,99.90
2023-04-10T19:02:17.573Z,99.90
2023-04-10T19:04:46.131Z,99.90
2023-04-10T19:07:15.945Z,99.90
2023-04-10T19:09:44.828Z,99.90
2023-04-10T19:12:16.574Z,99.90
2023-04-10T19:14:44.877Z,99.90
2023-04-10T19:17:13.141Z,99.90
2023-04-10T19:19:41.888Z,99.90
2023-04-10T19:22:10.374Z,99.90
2023-04-10T19:24:40.131Z,99.90
2023-04-10T19:27:09.174Z,99.90
2023-04-10T19:29:37.617Z,99.90
2023-04-10T19:32:06.189Z,99.90
2023-04-10T19:34:34.375Z,99.90
2023-04-10T19:37:02.677Z,99.90
2023-04-10T19:39:30.966Z,99.90
2023-04-10T19:42:00.675Z,99.90
2023-04-10T19:44:29.020Z,99.90
2023-04-10T19:46:57.631Z,99.90
2023-04-10T19:49:27.214Z,99.90
2023-04-10T19:51:56.716Z,99.90
2023-04-10T19:54:25.203Z,99.90
2023-04-10T19:56:53.532Z,99.90
2023-04-10T19:59:23.328Z,99.90
2023-04-10T20:01:51.772Z,99.90
2023-04-10T20:04:20.430Z,99.90
2023-04-10T20:06:49.354Z,99.90
2023-04-10T20:09:17.713Z,99.90
2023-04-10T20:11:46.049Z,99.90
2023-04-10T20:14:14.314Z,99.90
2023-04-10T20:16:43.969Z,99.90
2023-04-10T20:19:12.181Z,99.90
2023-04-10T20:21:40.590Z,99.90
2023-04-10T20:24:08.959Z,99.90
2023-04-10T20:26:37.205Z,99.90
2023-04-10T20:29:05.816Z,99.90
2023-04-10T20:31:34.758Z,99.90
2023-04-10T20:34:04.606Z,99.90
2023-04-10T20:36:33.371Z,99.90
2023-04-10T20:39:01.683Z,99.90
2023-04-10T20:41:30.012Z,99.90
2023-04-10T20:43:58.630Z,99.90
2023-04-10T20:46:27.577Z,99.90
2023-04-10T20:48:57.039Z,99.90
2023-04-10T20:51:27.406Z,99.90
2023-04-10T20:53:55.816Z,99.90
2023-04-10T20:56:32.821Z,99.90
2023-04-10T20:59:08.782Z,99.90
2023-04-10T21:01:37.293Z,99.90
2023-04-10T21:04:06.296Z,99.90
2023-04-10T21:06:36.312Z,99.90
2023-04-10T21:09:04.645Z,99.90
2023-04-10T21:11:32.935Z,99.90
2023-04-10T21:14:01.276Z,99.90
2023-04-10T21:16:31.188Z,99.90
2023-04-10T21:18:59.531Z,99.90
2023-04-10T21:21:27.918Z,99.90
2023-04-10T21:23:57.566Z,99.90
2023-04-10T21:26:26.004Z,99.90
2023-04-10T21:28:54.390Z,99.90
2023-04-10T21:31:22.843Z,99.90
2023-04-10T21:33:51.195Z,99.90
2023-04-10T21:36:19.402Z,99.90
2023-04-10T21:38:47.695Z,99.90
2023-04-10T21:41:17.408Z,99.90
2023-04-10T21:43:45.733Z,99.90
2023-04-10T21:46:14.018Z,99.90
2023-04-10T21:48:42.686Z,99.90
2023-04-10T21:51:10.886Z,99.90
2023-04-10T21:53:39.074Z,99.90
2023-04-10T21:56:08.000Z,99.90
2023-04-10T21:58:38.250Z,99.90
2023-04-10T22:01:08.054Z,99.90
2023-04-10T22:03:36.399Z,99.90
2023-04-10T22:06:04.893Z,99.90
2023-04-10T22:08:33.183Z,99.90
2023-04-10T22:11:01.486Z,99.90
2023-04-10T22:13:31.113Z,99.90
2023-04-10T22:16:02.967Z,99.90
2023-04-10T22:18:31.446Z,99.90
2023-04-10T22:20:59.717Z,99.90
2023-04-10T22:23:28.017Z,99.90
2023-04-10T22:25:56.283Z,99.90
2023-04-10T22:28:24.518Z,99.90
2023-04-10T22:30:52.852Z,99.90
2023-04-10T22:33:22.643Z,99.90
2023-04-10T22:35:52.776Z,99.90
2023-04-10T22:38:21.044Z,99.90
2023-04-10T22:40:49.241Z,99.90
2023-04-10T22:43:17.505Z,99.90
2023-04-10T22:45:45.803Z,99.90
2023-04-10T22:48:14.075Z,99.90
2023-04-10T22:50:43.795Z,99.90
2023-04-10T22:53:12.341Z,99.90
2023-04-10T22:55:40.529Z,99.90
2023-04-10T22:58:08.760Z,99.90
2023-04-10T23:00:37.008Z,99.90
2023-04-10T23:03:05.320Z,99.90
2023-04-10T23:05:34.172Z,99.90
2023-04-10T23:08:03.839Z,99.90
2023-04-10T23:10:32.078Z,99.90
2023-04-10T23:13:00.327Z,99.90
2023-04-10T23:15:28.702Z,99.90
2023-04-10T23:17:57.003Z,99.90
2023-04-10T23:20:26.022Z,99.90
2023-04-10T23:22:55.865Z,99.90
2023-04-10T23:25:25.841Z,99.90
2023-04-10T23:27:54.141Z,99.90
2023-04-10T23:30:22.364Z,99.90
2023-04-10T23:32:50.705Z,99.90
2023-04-10T23:35:19.068Z,99.90
2023-04-10T23:37:47.556Z,99.90
2023-04-10T23:40:15.986Z,99.90
2023-04-10T23:42:46.309Z,99.90
2023-04-10T23:45:14.607Z,99.90
2023-04-10T23:47:42.956Z,99.90
2023-04-10T23:50:12.308Z,99.90
2023-04-10T23:52:40.689Z,99.90
2023-04-10T23:55:09.637Z,99.90
2023-04-10T23:57:37.932Z,99.90
